Time;durP1;ratioP1;P1;durP2;ratioP2;P2;SDS_P1;SDS_P2;PMS_P1;PMS_P2;Temp;Humidity;BMP_temperature;BMP_pressure;BME280_temperature;BME280_humidity;BME280_pressure;Samples;Min_cycle;Max_cycle;Signal;HPM_P1;HPM_P2
2022/01/02 00:04:00;;;;;;;6.85;4.97;;;;;;;4.49;80.12;101356.83;3425106;81;21020;-70
2022/01/02 00:09:05;;;;;;;6.83;4.22;;;;;;;4.47;80.09;101346.85;3390766;83;20958;-70
2022/01/02 00:14:06;;;;;;;7.53;4.15;;;;;;;4.48;80.10;101346.03;3408113;82;21563;-70
2022/01/02 00:19:16;;;;;;;7.42;4.25;;;;;;;4.45;80.07;101342.41;3356496;83;20997;-69
2022/01/02 00:24:02;;;;;;;6.10;5.00;;;;;;;4.43;80.19;101344.02;3352898;83;21753;-70
2022/01/02 00:28:53;;;;;;;7.92;4.72;;;;;;;4.37;80.40;101341.61;3324929;83;20959;-69
2022/01/02 00:33:45;;;;;;;7.58;4.37;;;;;;;4.37;80.62;101352.32;3319919;83;21456;-69
2022/01/02 00:38:38;;;;;;;7.47;4.62;;;;;;;4.36;80.47;101350.16;3384012;82;20995;-70
2022/01/02 00:43:42;;;;;;;8.08;3.98;;;;;;;4.31;80.36;101351.98;3463465;80;20924;-70
2022/01/02 00:48:38;;;;;;;7.08;4.60;;;;;;;4.32;80.61;101338.32;3426492;81;20996;-70
2022/01/02 00:53:37;;;;;;;8.05;4.25;;;;;;;4.34;80.83;101336.70;3446631;80;21473;-70
2022/01/02 00:58:51;;;;;;;6.78;3.98;;;;;;;4.29;80.75;101340.72;3458101;80;21006;-70
2022/01/02 01:03:45;;;;;;;6.50;4.67;;;;;;;4.26;80.72;101332.86;3448665;81;21237;-70
2022/01/02 01:08:43;;;;;;;6.50;4.47;;;;;;;4.26;80.98;101330.29;3453031;81;21521;-71
2022/01/02 01:13:33;;;;;;;9.08;5.45;;;;;;;4.27;80.89;101321.74;3455472;81;21256;-70
2022/01/02 01:18:25;;;;;;;14.53;7.62;;;;;;;4.24;80.65;101319.00;3480972;79;21037;-71
2022/01/02 01:23:18;;;;;;;11.83;7.15;;;;;;;4.25;80.82;101316.92;3474985;79;20970;-70
2022/01/02 01:28:12;;;;;;;16.93;7.92;;;;;;;4.23;80.88;101308.23;3515722;78;20977;-71
2022/01/02 01:33:04;;;;;;;12.63;7.28;;;;;;;4.22;80.83;101312.89;3471214;78;21343;-70
2022/01/02 01:37:56;;;;;;;12.60;7.58;;;;;;;4.24;81.04;101310.90;3487619;78;20959;-71
2022/01/02 01:43:02;;;;;;;17.85;8.85;;;;;;;4.20;80.55;101305.99;3479640;79;20985;-70
2022/01/02 01:48:02;;;;;;;12.73;7.40;;;;;;;4.19;81.00;101296.48;3555551;78;21471;-71
2022/01/02 01:52:56;;;;;;;11.70;7.00;;;;;;;4.22;81.25;101293.59;3522508;78;20962;-71
2022/01/02 01:57:52;;;;;;;13.93;7.60;;;;;;;4.23;81.23;101270.91;3525054;79;22045;-70
2022/01/02 02:02:46;;;;;;;11.85;7.83;;;;;;;4.22;81.27;101262.70;3493004;79;21956;-71
2022/01/02 02:07:42;;;;;;;13.55;7.28;;;;;;;4.22;81.11;101270.04;3482747;79;20953;-70
2022/01/02 02:12:35;;;;;;;12.53;7.53;;;;;;;4.18;81.18;101258.67;3483457;79;21899;-71
2022/01/02 02:17:30;;;;;;;14.63;7.33;;;;;;;4.18;81.25;101257.38;3474703;78;21503;-70
2022/01/02 02:22:24;;;;;;;10.70;7.08;;;;;;;4.16;81.12;101250.41;3518554;79;20927;-71
2022/01/02 02:27:23;;;;;;;10.38;5.85;;;;;;;4.15;80.86;101237.04;3509740;78;21427;-71
2022/01/02 02:32:15;;;;;;;7.53;4.45;;;;;;;4.13;80.88;101240.84;3517415;79;21017;-71
2022/01/02 02:37:08;;;;;;;7.12;4.58;;;;;;;4.13;80.78;101230.55;3534566;80;20990;-71
2022/01/02 02:42:10;;;;;;;7.53;4.87;;;;;;;4.14;80.83;101223.30;3553368;80;20934;-71
2022/01/02 02:52:14;;;;;;;8.35;4.60;;;;;;;4.16;80.80;101205.36;3468576;80;21018;-71
2022/01/02 02:57:10;;;;;;;6.97;4.72;;;;;;;4.17;80.74;101210.59;3469709;80;21045;-71
2022/01/02 03:01:59;;;;;;;7.08;5.12;;;;;;;4.19;80.65;101211.96;3479869;80;20879;-71
2022/01/02 03:06:53;;;;;;;8.73;5.30;;;;;;;4.17;80.90;101205.86;3475682;79;21479;-70
2022/01/02 03:11:45;;;;;;;6.70;3.80;;;;;;;4.16;80.75;101195.06;3540522;79;20946;-71
2022/01/02 03:16:40;;;;;;;8.00;4.72;;;;;;;4.17;80.82;101196.44;3512942;79;21917;-70
2022/01/02 03:21:32;;;;;;;6.70;4.17;;;;;;;4.18;80.78;101184.03;3547353;79;21591;-71
2022/01/02 03:26:24;;;;;;;5.97;3.98;;;;;;;4.20;81.02;101186.69;3515130;79;20907;-70
2022/01/02 03:31:17;;;;;;;5.08;3.90;;;;;;;4.20;80.90;101188.88;3551618;79;20924;-71
2022/01/02 03:36:09;;;;;;;5.62;4.10;;;;;;;4.24;80.93;101164.55;3540392;79;21050;-70
2022/01/02 03:41:01;;;;;;;7.05;3.77;;;;;;;4.22;80.73;101152.02;3565973;79;21831;-71
2022/01/02 03:45:54;;;;;;;5.78;3.95;;;;;;;4.20;80.86;101151.56;3473984;79;21487;-71
2022/01/02 03:50:48;;;;;;;5.42;3.72;;;;;;;4.22;80.98;101156.79;3504997;79;21015;-71
2022/01/02 03:55:42;;;;;;;6.08;4.62;;;;;;;4.20;80.75;101133.55;3525111;79;21037;-70
2022/01/02 04:00:34;;;;;;;7.15;4.30;;;;;;;4.20;80.71;101120.67;3568896;79;20971;-70
2022/01/02 04:05:26;;;;;;;4.40;3.17;;;;;;;4.22;80.76;101121.13;3524599;79;21416;-71
2022/01/02 04:10:19;;;;;;;6.55;4.08;;;;;;;4.22;80.64;101113.03;3542732;79;21564;-71
2022/01/02 04:15:14;;;;;;;6.08;4.15;;;;;;;4.17;80.74;101107.64;3535543;78;20945;-70
2022/01/02 04:20:11;;;;;;;9.43;4.83;;;;;;;4.15;80.86;101092.53;3468260;79;21492;-71
2022/01/02 04:25:05;;;;;;;5.03;3.90;;;;;;;4.14;80.97;101090.75;3463288;80;21069;-71
2022/01/02 04:29:57;;;;;;;5.67;4.55;;;;;;;4.13;80.88;101082.58;3511394;79;21875;-71
2022/01/02 04:34:50;;;;;;;5.58;4.42;;;;;;;4.13;81.17;101077.42;3510842;79;21460;-71
2022/01/02 04:39:44;;;;;;;7.33;5.47;;;;;;;4.14;81.17;101066.72;3499052;79;20998;-70
2022/01/02 04:44:38;;;;;;;7.95;4.97;;;;;;;4.14;81.08;101049.58;3505480;78;20974;-71
2022/01/02 04:49:32;;;;;;;5.10;4.42;;;;;;;4.14;81.24;101026.83;3487044;79;20951;-70
2022/01/02 04:54:25;;;;;;;7.37;5.47;;;;;;;4.15;81.28;101010.18;3479099;79;21952;-71
2022/01/02 04:59:18;;;;;;;7.20;4.60;;;;;;;4.15;81.20;100997.31;3479979;79;20970;-70
2022/01/02 05:04:11;;;;;;;5.60;4.65;;;;;;;4.13;81.29;100997.65;3498101;78;20974;-70
2022/01/02 05:09:04;;;;;;;6.97;5.10;;;;;;;4.14;81.29;100979.22;3494030;79;20983;-70
2022/01/02 05:13:57;;;;;;;8.88;5.05;;;;;;;4.14;81.31;100973.66;3460576;80;21477;-70
2022/01/02 05:18:49;;;;;;;9.93;5.92;;;;;;;4.13;81.30;100959.05;3439099;81;21057;-70
2022/01/02 05:23:42;;;;;;;7.28;5.12;;;;;;;4.12;81.33;100946.98;3569218;78;21061;-70
2022/01/02 05:28:35;;;;;;;8.80;5.87;;;;;;;4.10;81.43;100958.89;3578732;79;21113;-70
2022/01/02 05:33:27;;;;;;;7.12;5.55;;;;;;;4.11;81.57;100964.50;3526449;78;20970;-70
2022/01/02 05:38:19;;;;;;;6.75;4.95;;;;;;;4.14;81.66;100955.64;3537430;79;21000;-70
2022/01/02 05:43:12;;;;;;;11.60;5.65;;;;;;;4.18;81.77;100945.96;3496937;79;21011;-70
2022/01/02 05:48:05;;;;;;;8.25;6.33;;;;;;;4.19;81.75;100918.55;3482832;79;21487;-71
2022/01/02 05:52:58;;;;;;;8.23;6.33;;;;;;;4.18;81.83;100915.08;3503651;79;20921;-70
2022/01/02 05:57:51;;;;;;;8.35;5.97;;;;;;;4.18;81.95;100924.09;3503495;79;20977;-71
2022/01/02 06:02:43;;;;;;;12.18;7.83;;;;;;;4.18;82.11;100924.09;3522667;80;20927;-70
2022/01/02 06:07:37;;;;;;;8.75;6.30;;;;;;;4.17;82.36;100892.74;3538974;79;20994;-70
2022/01/02 06:12:30;;;;;;;11.15;7.40;;;;;;;4.19;82.51;100883.81;3467663;79;20962;-70
2022/01/02 06:17:23;;;;;;;10.30;6.80;;;;;;;4.18;82.81;100873.90;3503520;79;20999;-69
2022/01/02 06:22:15;;;;;;;7.80;5.67;;;;;;;4.15;83.05;100864.78;3486922;79;20947;-70
2022/01/02 06:27:08;;;;;;;10.50;6.53;;;;;;;4.15;83.44;100867.34;3461948;79;21091;-70
2022/01/02 06:32:00;;;;;;;12.35;8.25;;;;;;;4.11;83.63;100874.84;3465244;79;21409;-70
2022/01/02 06:36:53;;;;;;;11.30;7.37;;;;;;;4.07;83.80;100866.11;3471845;79;20941;-70
2022/01/02 06:41:45;;;;;;;14.33;8.05;;;;;;;4.06;83.92;100860.50;3541676;79;21041;-70
2022/01/02 06:46:40;;;;;;;10.82;8.80;;;;;;;4.04;84.03;100853.09;3512785;79;21048;-70
2022/01/02 06:51:33;;;;;;;11.28;7.47;;;;;;;3.99;84.74;100846.88;3511367;79;21117;-71
2022/01/02 06:56:25;;;;;;;12.75;7.40;;;;;;;3.97;84.40;100841.66;3551110;79;21883;-70
2022/01/02 07:01:17;;;;;;;9.85;7.78;;;;;;;3.99;84.62;100827.59;3498635;79;20939;-71
2022/01/02 07:06:10;;;;;;;12.60;7.40;;;;;;;4.02;84.64;100825.12;3482915;79;21491;-70
2022/01/02 07:11:02;;;;;;;13.08;8.45;;;;;;;3.99;84.70;100819.45;3477014;79;20959;-70
2022/01/02 07:15:54;;;;;;;12.82;7.47;;;;;;;4.00;84.82;100797.17;3518060;78;21444;-71
2022/01/02 07:20:46;;;;;;;16.95;9.10;;;;;;;4.03;85.04;100799.89;3432404;80;22354;-71
2022/01/02 07:25:38;;;;;;;15.75;10.08;;;;;;;4.04;85.06;100787.48;3374392;81;21443;-71
2022/01/02 07:30:30;;;;;;;14.13;9.95;;;;;;;4.05;85.24;100781.54;3572985;78;22010;-71
2022/01/02 07:35:23;;;;;;;17.27;9.05;;;;;;;4.07;85.34;100783.77;3537467;79;20973;-71
2022/01/02 07:40:15;;;;;;;15.68;10.48;;;;;;;4.10;85.45;100785.61;3574179;78;20923;-71
2022/01/02 07:45:07;;;;;;;20.00;10.55;;;;;;;4.10;85.45;100768.47;3497882;81;21060;-70
2022/01/02 07:49:59;;;;;;;17.60;11.25;;;;;;;4.17;85.55;100762.78;3562802;78;20954;-70
2022/01/02 07:54:51;;;;;;;18.17;11.20;;;;;;;4.19;85.57;100748.28;3513005;79;20992;-71
2022/01/02 07:59:43;;;;;;;16.45;11.08;;;;;;;4.18;85.62;100728.49;3474647;80;21029;-70
2022/01/02 08:04:35;;;;;;;17.62;10.50;;;;;;;4.24;85.71;100712.46;3487842;79;21448;-71
2022/01/02 08:09:27;;;;;;;19.17;11.60;;;;;;;4.27;85.86;100711.70;3451106;79;21479;-71
2022/01/02 08:14:21;;;;;;;12.55;9.15;;;;;;;4.28;85.84;100696.73;3429171;79;22187;-70
2022/01/02 08:19:14;;;;;;;18.90;11.95;;;;;;;4.33;86.27;100683.66;3428968;79;20958;-70
2022/01/02 08:24:07;;;;;;;17.05;9.68;;;;;;;4.30;85.98;100669.36;3490966;80;20981;-70
2022/01/02 08:29:00;;;;;;;20.77;11.53;;;;;;;4.31;86.22;100665.95;3455192;80;20978;-70
2022/01/02 08:33:52;;;;;;;25.17;15.00;;;;;;;4.36;86.30;100663.17;3443842;80;20997;-70
2022/01/02 08:38:46;;;;;;;20.10;12.43;;;;;;;4.47;86.37;100664.89;3449180;80;21582;-70
2022/01/02 08:43:38;;;;;;;16.75;12.05;;;;;;;4.58;86.33;100658.09;3423020;80;21003;-71
2022/01/02 08:48:30;;;;;;;21.42;12.58;;;;;;;4.72;86.37;100666.75;3476370;80;21014;-70
2022/01/02 08:53:22;;;;;;;21.77;13.80;;;;;;;4.83;86.32;100665.51;3471405;80;20928;-71
2022/01/02 08:58:15;;;;;;;24.82;13.72;;;;;;;4.91;86.23;100643.48;3477497;80;21432;-70
2022/01/02 09:03:07;;;;;;;21.15;13.70;;;;;;;4.96;86.30;100650.98;3468404;80;21456;-70
2022/01/02 09:07:59;;;;;;;22.52;14.40;;;;;;;5.03;86.46;100652.10;3459628;80;20958;-71
2022/01/02 09:12:51;;;;;;;25.08;15.63;;;;;;;5.12;86.54;100642.56;3497676;80;20986;-71
2022/01/02 09:17:43;;;;;;;23.02;13.85;;;;;;;5.19;86.52;100632.95;3469929;81;20960;-71
2022/01/02 09:22:40;;;;;;;21.95;15.38;;;;;;;5.28;86.60;100634.57;3530892;79;21064;-71
2022/01/02 09:27:30;;;;;;;27.42;17.45;;;;;;;5.42;86.65;100610.98;3477433;79;21368;-71
2022/01/02 09:32:22;;;;;;;27.02;16.12;;;;;;;5.50;86.66;100584.64;3506582;79;20925;-71
2022/01/02 09:37:14;;;;;;;23.80;15.68;;;;;;;5.60;86.71;100571.68;3531626;79;21731;-70
2022/01/02 09:42:06;;;;;;;24.10;15.32;;;;;;;5.69;86.83;100571.99;3505543;81;21587;-71
2022/01/02 09:46:58;;;;;;;21.30;15.40;;;;;;;5.78;86.91;100562.41;3457036;79;21893;-70
2022/01/02 09:51:50;;;;;;;20.32;14.15;;;;;;;5.91;86.94;100537.88;3536662;79;21000;-70
2022/01/02 09:56:43;;;;;;;26.48;15.63;;;;;;;5.97;86.98;100523.91;3480770;79;21007;-69
2022/01/02 10:01:37;;;;;;;25.75;15.08;;;;;;;6.02;87.05;100526.65;3478805;79;21390;-70
2022/01/02 10:06:46;;;;;;;25.48;16.25;;;;;;;6.06;87.20;100513.91;3475327;79;21480;-69
2022/01/02 10:11:40;;;;;;;;;;;;;;;6.07;87.04;100484.67;3468127;79;21018;-69
2022/01/02 10:16:41;;;;;;;24.75;15.53;;;;;;;6.17;87.13;100468.17;3501546;79;20129;-68
2022/01/02 10:21:38;;;;;;;22.15;15.75;;;;;;;6.25;87.10;100440.89;3431379;81;20961;-68
2022/01/02 10:26:30;;;;;;;24.63;15.75;;;;;;;6.31;87.15;100434.61;3462303;80;25011;-69
2022/01/02 10:31:22;;;;;;;31.75;17.90;;;;;;;6.35;87.14;100391.28;3454506;81;21006;-69
2022/01/02 10:36:15;;;;;;;27.10;18.75;;;;;;;6.41;87.11;100384.98;3449261;81;21072;-69
2022/01/02 10:41:07;;;;;;;24.65;18.32;;;;;;;6.51;87.10;100354.25;3389627;81;21642;-69
2022/01/02 10:46:04;;;;;;;30.15;18.32;;;;;;;6.61;87.07;100349.80;3419001;82;20981;-69
2022/01/02 10:51:04;;;;;;;26.23;18.53;;;;;;;6.73;87.07;100337.64;3443162;82;21033;-69
2022/01/02 10:55:57;;;;;;;28.80;19.02;;;;;;;6.85;87.07;100342.70;3419476;82;21005;-70
2022/01/02 11:00:51;;;;;;;28.62;18.50;;;;;;;6.92;87.08;100328.64;3372920;82;23274;-69
2022/01/02 11:05:45;;;;;;;26.80;18.20;;;;;;;6.97;87.11;100334.80;3420643;82;20986;-70
2022/01/02 11:10:37;;;;;;;25.82;17.37;;;;;;;7.03;87.13;100315.59;3428014;81;21165;-69
2022/01/02 11:15:30;;;;;;;26.33;17.80;;;;;;;7.08;87.16;100286.82;3452464;80;21216;-69
2022/01/02 11:20:30;;;;;;;28.15;20.23;;;;;;;7.17;87.21;100288.75;3489634;80;20946;-69
2022/01/02 11:25:51;;;;;;;25.23;17.05;;;;;;;7.24;87.24;100264.79;3589290;78;20999;-70
2022/01/02 11:30:43;;;;;;;25.37;18.02;;;;;;;7.31;87.30;100269.70;3570175;78;21404;-69
2022/01/02 11:35:39;;;;;;;24.30;17.45;;;;;;;7.39;87.37;100255.23;3493007;78;20970;-69
2022/01/02 11:40:57;;;;;;;24.75;17.23;;;;;;;7.43;87.53;100246.70;3584096;78;20899;-69
2022/01/02 11:45:49;;;;;;;25.20;16.90;;;;;;;7.49;87.56;100228.70;3574050;78;21092;-68
2022/01/02 11:50:44;;;;;;;21.15;15.88;;;;;;;7.58;87.42;100212.12;3496630;78;20928;-69
2022/01/02 11:55:37;;;;;;;22.70;15.95;;;;;;;7.72;87.77;100225.75;3520920;78;20952;-69
2022/01/02 12:00:39;;;;;;;27.52;18.73;;;;;;;7.72;87.77;100225.75;3582254;78;21015;-69
2022/01/02 12:05:32;;;;;;;24.47;16.15;;;;;;;7.81;87.85;100191.85;3507576;78;20977;-69
2022/01/02 12:10:37;;;;;;;22.90;14.60;;;;;;;7.92;87.82;100189.51;3533547;78;20925;-69
2022/01/02 12:15:36;;;;;;;24.82;15.08;;;;;;;8.00;87.82;100190.51;3502422;78;21701;-69
2022/01/02 12:20:28;;;;;;;23.70;14.18;;;;;;;8.05;87.86;100182.84;3414805;81;20997;-70
2022/01/02 12:25:23;;;;;;;21.90;15.50;;;;;;;8.06;87.93;100160.40;3532321;78;20927;-68
2022/01/02 12:30:16;;;;;;;24.35;15.35;;;;;;;8.07;87.97;100155.25;3526700;78;20946;-69
2022/01/02 12:35:09;;;;;;;24.82;16.00;;;;;;;8.09;87.98;100131.98;3558946;78;21446;-69
2022/01/02 12:40:00;;;;;;;24.90;15.53;;;;;;;8.13;88.04;100128.59;3472726;78;21544;-70
2022/01/02 12:44:52;;;;;;;22.87;15.75;;;;;;;8.12;88.07;100121.66;3553843;78;21471;-68
2022/01/02 12:49:45;;;;;;;22.42;15.28;;;;;;;8.15;88.17;100113.95;3534851;78;21401;-69
2022/01/02 12:54:43;;;;;;;23.38;15.03;;;;;;;8.23;88.04;100095.94;3475105;78;21050;-68
2022/01/02 12:59:45;;;;;;;24.87;16.73;;;;;;;8.28;88.02;100095.20;3524986;78;20942;-69
2022/01/02 13:04:43;;;;;;;23.67;16.27;;;;;;;8.28;88.08;100090.02;3524790;78;21028;-69
2022/01/02 13:09:40;;;;;;;23.05;15.75;;;;;;;8.28;88.08;100090.02;3489864;78;21037;-68
2022/01/02 13:14:46;;;;;;;24.95;15.32;;;;;;;8.28;88.01;100077.07;3547989;78;20888;-69
2022/01/02 13:19:43;;;;;;;23.38;16.17;;;;;;;8.25;88.08;100048.52;3534323;78;21056;-69
2022/01/02 13:24:37;;;;;;;27.30;16.65;;;;;;;8.25;88.08;100048.52;3448846;80;21642;-69
2022/01/02 13:29:29;;;;;;;23.60;16.07;;;;;;;8.23;88.16;100041.16;3521527;79;20953;-69
2022/01/02 13:34:26;;;;;;;26.23;16.45;;;;;;;8.22;88.14;100039.40;3521048;78;20950;-69
2022/01/02 13:39:18;;;;;;;21.17;15.05;;;;;;;8.21;88.14;100036.38;3529125;78;21016;-70
2022/01/02 13:44:17;;;;;;;21.48;15.13;;;;;;;8.15;88.16;100046.19;3543323;79;20975;-69
2022/01/02 13:49:09;;;;;;;25.05;15.80;;;;;;;8.14;88.10;100036.70;3470853;79;21464;-68
2022/01/02 13:54:15;;;;;;;22.42;14.18;;;;;;;8.09;88.52;100033.59;3493354;79;21021;-68
2022/01/02 13:59:11;;;;;;;22.15;14.58;;;;;;;8.09;88.52;100033.59;3527653;79;20936;-69
2022/01/02 14:04:07;;;;;;;20.65;12.68;;;;;;;8.11;88.41;100039.66;3514442;80;21019;-69
2022/01/02 14:09:14;;;;;;;18.53;13.37;;;;;;;8.10;88.44;100026.26;3511775;79;20997;-69
2022/01/02 14:14:20;;;;;;;19.57;13.08;;;;;;;8.08;88.52;100011.13;3464549;80;20968;-69
2022/01/02 14:19:09;;;;;;;16.30;11.45;;;;;;;8.10;88.51;99998.67;3444809;79;21490;-68
2022/01/02 14:24:06;;;;;;;17.00;12.37;;;;;;;8.10;88.50;100002.95;3444754;80;20946;-69
2022/01/02 14:29:01;;;;;;;17.25;13.30;;;;;;;8.08;88.43;100003.36;3479400;79;20987;-68
2022/01/02 14:33:53;;;;;;;15.95;11.28;;;;;;;8.05;88.37;100002.01;3448316;80;21019;-69
2022/01/02 14:38:47;;;;;;;16.62;11.60;;;;;;;8.11;88.43;99987.88;3477274;79;20950;-69
2022/01/02 14:43:39;;;;;;;17.25;11.65;;;;;;;8.11;88.43;99987.88;3495559;79;21653;-69
2022/01/02 14:48:31;;;;;;;16.05;10.85;;;;;;;8.13;88.50;99972.80;3503854;79;21419;-68
2022/01/02 14:53:23;;;;;;;20.72;13.28;;;;;;;8.15;88.32;99959.45;3414984;81;21727;-69
2022/01/02 14:58:15;;;;;;;16.70;11.75;;;;;;;8.14;88.26;99962.05;3476013;79;20951;-68
2022/01/02 15:03:07;;;;;;;16.65;11.33;;;;;;;8.13;88.32;99945.61;3500186;79;20929;-68
2022/01/02 15:07:59;;;;;;;18.52;11.03;;;;;;;8.10;87.93;99924.87;3444205;78;20931;-68
2022/01/02 15:12:51;;;;;;;16.27;11.33;;;;;;;8.15;88.21;99927.52;3435527;79;21471;-68
2022/01/02 15:17:43;;;;;;;17.23;11.40;;;;;;;8.15;88.21;99927.52;3479213;80;20982;-68
2022/01/02 15:22:36;;;;;;;20.52;11.43;;;;;;;8.15;88.15;99924.92;3399351;81;22156;-69
2022/01/02 15:27:28;;;;;;;13.72;10.93;;;;;;;8.16;88.27;99913.30;3484064;78;20953;-68
2022/01/02 15:32:20;;;;;;;15.35;10.72;;;;;;;8.16;88.23;99918.91;3457389;79;21002;-68
2022/01/02 15:37:12;;;;;;;16.35;10.98;;;;;;;8.12;88.30;99918.40;3428168;79;21316;-69
2022/01/02 15:42:05;;;;;;;17.67;10.68;;;;;;;8.13;88.48;99914.97;3557625;79;21156;-69
2022/01/02 15:46:57;;;;;;;17.62;11.78;;;;;;;8.07;88.48;99906.70;3445392;79;21041;-69
2022/01/02 15:51:49;;;;;;;15.53;11.40;;;;;;;8.06;88.74;99893.30;3444981;79;20982;-70
2022/01/02 15:56:42;;;;;;;17.45;11.78;;;;;;;8.08;88.76;99894.62;3523727;78;21102;-69
2022/01/02 16:01:34;;;;;;;19.82;12.75;;;;;;;8.01;88.79;99880.71;3533698;79;20970;-70
2022/01/02 16:06:26;;;;;;;16.02;11.50;;;;;;;8.02;88.85;99876.85;3516863;78;20959;-70
2022/01/02 16:11:18;;;;;;;14.87;10.58;;;;;;;7.99;88.86;99866.48;3485977;78;21015;-71
2022/01/02 16:16:11;;;;;;;18.92;9.48;;;;;;;7.99;88.99;99863.89;3514257;79;20989;-69
2022/01/02 16:21:03;;;;;;;17.07;12.05;;;;;;;8.00;89.09;99861.73;3498492;79;20971;-70
2022/01/02 16:25:55;;;;;;;15.83;12.15;;;;;;;8.02;88.96;99857.88;3497852;80;20927;-69
2022/01/02 16:30:48;;;;;;;13.53;9.90;;;;;;;7.97;89.30;99853.91;3515706;81;20931;-69
2022/01/02 16:35:40;;;;;;;15.18;10.53;;;;;;;7.97;89.30;99853.91;3503633;80;21500;-69
2022/01/02 16:40:32;;;;;;;15.08;9.68;;;;;;;8.01;89.26;99842.77;3469498;80;20974;-69
2022/01/02 16:45:24;;;;;;;15.08;10.13;;;;;;;8.03;89.37;99831.14;3489615;81;21204;-69
2022/01/02 16:50:16;;;;;;;14.15;9.48;;;;;;;8.05;89.40;99820.38;3444942;80;20939;-69
2022/01/02 16:55:10;;;;;;;14.95;10.18;;;;;;;8.07;89.45;99812.64;3467818;80;37854;-70
2022/01/02 17:00:06;;;;;;;13.28;9.48;;;;;;;8.09;89.43;99800.58;3424915;80;21010;-69
2022/01/02 17:04:58;;;;;;;15.98;10.40;;;;;;;8.09;89.43;99800.58;3466955;81;21003;-70
2022/01/02 17:09:50;;;;;;;15.40;9.65;;;;;;;8.12;89.71;99794.13;3490248;81;21453;-70
2022/01/02 17:14:42;;;;;;;13.40;9.48;;;;;;;8.11;89.64;99779.02;3507791;81;21497;-69
2022/01/02 17:19:34;;;;;;;15.45;9.90;;;;;;;8.13;89.78;99784.22;3491447;81;20933;-69
2022/01/02 17:24:27;;;;;;;13.53;9.08;;;;;;;8.14;89.92;99768.70;3482105;78;20956;-69
2022/01/02 17:29:19;;;;;;;14.90;9.10;;;;;;;8.14;89.86;99768.70;3512631;79;20905;-69
2022/01/02 17:34:11;;;;;;;15.45;9.25;;;;;;;8.16;90.21;99768.73;3486429;79;21467;-69
2022/01/02 17:39:03;;;;;;;15.63;10.10;;;;;;;8.16;90.27;99759.66;3492744;80;21571;-69
2022/01/02 17:43:55;;;;;;;12.25;9.30;;;;;;;8.17;90.18;99757.50;3524628;79;21401;-69
2022/01/02 17:48:47;;;;;;;15.55;9.78;;;;;;;8.16;90.28;99750.60;3565391;78;21020;-69
2022/01/02 17:53:40;;;;;;;13.90;9.55;;;;;;;8.17;90.58;99742.86;3559827;79;20933;-69
2022/01/02 17:58:33;;;;;;;14.03;9.58;;;;;;;8.19;90.63;99723.42;3529305;78;21032;-69
2022/01/02 18:03:25;;;;;;;14.65;9.48;;;;;;;8.20;90.72;99709.20;3517074;79;20929;-69
2022/01/02 18:08:17;;;;;;;12.78;9.40;;;;;;;8.20;90.83;99700.14;3536178;79;20918;-70
2022/01/02 18:13:10;;;;;;;15.43;10.10;;;;;;;8.22;90.99;99692.39;3529310;80;21259;-69
2022/01/02 18:18:03;;;;;;;13.65;9.68;;;;;;;8.23;91.08;99677.72;3477342;80;20991;-69
2022/01/02 18:22:56;;;;;;;14.47;10.60;;;;;;;8.22;90.93;99679.45;3511675;81;22390;-69
2022/01/02 18:27:48;;;;;;;15.32;10.38;;;;;;;8.22;91.11;99679.45;3478783;81;20922;-68
2022/01/02 18:32:41;;;;;;;14.75;10.18;;;;;;;8.23;91.30;99676.42;3488709;81;21291;-69
2022/01/02 18:37:33;;;;;;;13.60;10.30;;;;;;;8.23;91.30;99676.42;3484243;81;21439;-69
2022/01/02 18:42:25;;;;;;;18.40;9.95;;;;;;;8.23;91.45;99655.30;3525233;80;21970;-70
2022/01/02 18:47:18;;;;;;;12.37;8.68;;;;;;;8.23;91.85;99660.48;3483886;79;20981;-70
2022/01/02 18:52:10;;;;;;;17.48;10.90;;;;;;;8.22;91.69;99634.13;3491284;79;21035;-69
2022/01/02 18:57:03;;;;;;;14.70;10.35;;;;;;;8.25;91.91;99645.83;3455186;79;21536;-69
2022/01/02 19:01:55;;;;;;;15.48;10.58;;;;;;;8.25;91.87;99595.77;3454664;79;21534;-70
2022/01/02 19:06:48;;;;;;;15.20;9.13;;;;;;;8.25;91.87;99582.37;3494551;79;21536;-68
2022/01/02 19:11:40;;;;;;;15.00;9.00;;;;;;;8.25;91.85;99590.15;3427471;79;21581;-69
2022/01/02 19:16:32;;;;;;;14.75;11.50;;;;;;;8.25;92.00;99565.55;3473212;79;21573;-69
2022/01/02 19:21:25;;;;;;;14.58;9.78;;;;;;;8.25;92.00;99565.55;3415142;79;20975;-70
2022/01/02 19:26:18;;;;;;;16.80;11.55;;;;;;;8.26;92.01;99547.84;3442581;79;20973;-68
2022/01/02 19:31:10;;;;;;;14.75;10.03;;;;;;;8.25;92.01;99520.23;3476228;79;21580;-69
2022/01/02 19:36:03;;;;;;;16.15;11.30;;;;;;;8.25;92.01;99518.94;3465240;81;21484;-69
2022/01/02 19:40:55;;;;;;;17.17;10.25;;;;;;;8.26;92.10;99507.70;3533121;78;21017;-69
2022/01/02 19:45:47;;;;;;;11.40;6.95;;;;;;;8.25;92.12;99507.28;3433938;80;21028;-69
2022/01/02 19:50:40;;;;;;;15.30;10.43;;;;;;;8.24;92.37;99508.13;3454988;78;20941;-70
2022/01/02 19:55:32;;;;;;;15.43;9.75;;;;;;;8.24;92.13;99496.91;3419538;81;20986;-70
2022/01/02 20:00:25;;;;;;;14.68;9.78;;;;;;;8.25;92.13;99496.92;3416441;81;20971;-69
2022/01/02 20:05:18;;;;;;;14.23;10.58;;;;;;;8.25;92.15;99491.75;3391648;81;20966;-69
2022/01/02 20:10:13;;;;;;;14.45;10.13;;;;;;;8.25;92.28;99483.12;3559463;79;20984;-70
2022/01/02 20:15:08;;;;;;;14.87;10.35;;;;;;;8.25;92.28;99483.12;3562187;79;20984;-70
2022/01/02 20:20:01;;;;;;;12.43;9.20;;;;;;;8.24;92.05;99501.65;3521195;78;20940;-70
2022/01/02 20:24:53;;;;;;;15.90;10.55;;;;;;;8.24;92.14;99493.88;3427073;80;21047;-69
2022/01/02 20:29:45;;;;;;;14.35;10.18;;;;;;;8.25;92.03;99503.39;3400987;80;20952;-70
2022/01/02 20:34:37;;;;;;;13.22;9.13;;;;;;;8.21;92.11;99452.45;3440793;81;20954;-70
2022/01/02 20:39:30;;;;;;;17.07;10.35;;;;;;;8.21;92.11;99452.45;3441099;80;20893;-69
2022/01/02 20:44:22;;;;;;;14.78;10.45;;;;;;;8.20;91.98;99454.59;3469506;80;20956;-69
2022/01/02 20:49:14;;;;;;;13.58;10.70;;;;;;;8.17;91.93;99457.16;3440585;80;21781;-70
2022/01/02 20:54:06;;;;;;;15.72;9.90;;;;;;;8.17;92.08;99451.97;3456306;80;21218;-69
2022/01/02 20:58:58;;;;;;;15.48;11.20;;;;;;;8.18;92.06;99465.38;3449165;80;21980;-70
2022/01/02 21:03:51;;;;;;;15.10;10.58;;;;;;;8.11;91.79;99436.41;3437668;80;20951;-70
2022/01/02 21:08:45;;;;;;;11.93;9.63;;;;;;;8.11;91.79;99436.41;3425837;80;20971;-69
2022/01/02 21:13:37;;;;;;;11.30;9.13;;;;;;;8.13;92.06;99432.11;3449326;80;22057;-70
2022/01/02 21:18:30;;;;;;;13.70;9.08;;;;;;;8.12;92.13;99420.01;3453303;80;20968;-70
2022/01/02 21:23:22;;;;;;;12.37;8.10;;;;;;;8.11;92.08;99405.34;3466074;79;20948;-69
2022/01/02 21:28:16;;;;;;;17.35;9.30;;;;;;;8.12;92.04;99385.95;3597468;78;20975;-69
2022/01/02 21:33:08;;;;;;;12.58;9.15;;;;;;;8.12;92.04;99385.95;3472967;79;20978;-70
2022/01/02 21:38:02;;;;;;;13.10;8.45;;;;;;;8.13;92.10;99382.92;3551661;78;21510;-70
2022/01/02 21:42:56;;;;;;;13.45;8.73;;;;;;;8.14;92.03;99374.31;3553637;78;21008;-69
2022/01/02 21:47:55;;;;;;;17.92;9.55;;;;;;;8.09;91.86;99360.47;3531641;78;20962;-70
2022/01/02 21:52:43;;;;;;;11.65;7.70;;;;;;;8.09;91.86;99360.47;3577769;78;21589;-69
2022/01/02 21:57:40;;;;;;;11.93;7.85;;;;;;;8.05;91.76;99358.70;3575958;78;21491;-69
2022/01/02 22:02:30;;;;;;;14.78;8.15;;;;;;;7.97;91.60;99356.94;3567974;78;21722;-69
2022/01/02 22:07:25;;;;;;;15.10;8.35;;;;;;;7.89;91.55;99356.05;3523250;78;20880;-69
2022/01/02 22:12:18;;;;;;;15.30;8.53;;;;;;;7.86;91.75;99353.43;3590354;78;20962;-70
2022/01/02 22:17:11;;;;;;;13.40;8.05;;;;;;;7.92;91.72;99357.77;3552727;78;20954;-69
2022/01/02 22:22:06;;;;;;;12.60;8.45;;;;;;;7.99;91.71;99350.48;3525560;78;21002;-70
2022/01/02 22:27:02;;;;;;;12.70;8.05;;;;;;;8.02;91.55;99346.18;3564753;78;21000;-69
2022/01/02 22:31:56;;;;;;;13.80;8.05;;;;;;;8.08;91.50;99353.55;3500951;78;20911;-70
2022/01/02 22:36:49;;;;;;;12.63;8.43;;;;;;;8.12;91.43;99355.28;3600511;78;21530;-69
2022/01/02 22:41:42;;;;;;;13.75;8.18;;;;;;;8.16;91.34;99351.88;3596248;78;20966;-69
2022/01/02 22:46:35;;;;;;;13.08;7.17;;;;;;;8.21;91.27;99354.06;3528605;78;20946;-69
2022/01/02 22:51:32;;;;;;;10.00;6.90;;;;;;;8.24;91.21;99349.31;3570040;78;21573;-70
2022/01/02 22:56:25;;;;;;;11.67;6.33;;;;;;;8.27;91.13;99348.90;3526146;78;20953;-69